Tiempo atmosférico en la estación meteorológica de Don Benito, Badajoz (273 m.)



Fecha
DESCASC
Temp. máxima en grados centígrados (hora)
DESCASC
Temp. mínima en grados centígrados (hora)
DESCASC
Temp. media en grados centígrados
DESCASC
Racha de viento máxima en m/sg (hora)
DESCASC
Velocidad máxima media en intervalos de 10 minutos(hora)
DESCASC
Precipitaciones diarias en mm
DESCASC
Precipitaciones de 00:00 a 06:00 en mm
DESCASC
Precipitaciones de 06:00 a 12:00 en mm
DESCASC
Precipitaciones de 12:00 a 18:00 en mm
DESCASC
Precipitaciones de 18:00 a 24:00 en mm
DESCASC
16-01-2020 18.7 (15:00) 9.3 (09:10) 14 9.17 (23:10) 5.28 (15:30) 0 0 0 0 0
15-01-2020 16.7 (15:30) 5.9 (06:00) 11.3 9.44 (15:20) 5.28 (15:20) 0 0 0 0 0
14-01-2020 13.3 (15:30) -0.3 (07:00) 6.5 6.11 (23:30) 2.5 (21:20) 0 0 0 0 0
13-01-2020 12.9 (17:30) -0.5 (08:10) 6.2 3.06 (15:50) 2.22 (21:00) 0 0 0 0 0
12-01-2020 14.5 (17:20) -0.3 (00:00) 7.1 3.33 (08:50) 2.22 (21:00) 0 0 0 0 0
11-01-2020 13.8 (16:10) 0.5 (00:00) 7.2 4.17 (09:00) 1.67 (12:40) 0 0 0 0 0
10-01-2020 13.8 (17:00) 2.9 (00:00) 8.4 5.28 (05:50) 3.06 (05:50) 0 0 0 0 0
09-01-2020 13.1 (16:50) 0.5 (00:00) 6.8 4.72 (17:00) 2.78 (00:40) 0 0 0 0 0
08-01-2020 14.7 (17:30) 0.3 (00:00) 7.5 2.78 (14:20) 2.22 (21:50) 0 0 0 0 0
07-01-2020 15.4 (16:10) 0.3 (00:00) 7.8 3.33 (21:20) 2.78 (21:30) 0 0 0 0 0
06-01-2020 14.8 (16:40) 0.6 (00:00) 7.7 3.61 (23:10) 2.5 (23:10) 0 0 0 0 0
05-01-2020 14.7 (16:40) 2 (00:00) 8.3 3.61 (14:10) 1.94 (22:50) 0 0 0 0 0
04-01-2020 12.8 (16:40) 1.9 (00:00) 7.4 3.61 (17:40) 1.94 (20:50) 0 0 0 0 0
03-01-2020 14.4 (14:30) 6.3 (00:00) 10.3 5.83 (14:40) 2.5 (15:00) 0 0 0 0 0
02-01-2020 14.9 (16:40) 1.1 (00:00) 8 3.61 (19:30) 1.94 (16:50) 0 0 0 0 0
01-01-2020 14.9 (16:00) 1.6 (00:00) 8.2 2.78 (15:10) 1.67 (21:50) 0 0 0 0 0
31-12-2019 14.2 (16:20) 2.2 (00:00) 8.2 3.61 (13:00) 1.67 (10:00) 0 0 0 0 0
30-12-2019 15.6 (15:40) 3.4 (00:00) 9.5 4.44 (12:40) 2.22 (12:40) 0 0 0 0 0
29-12-2019 18.2 (16:40) 5.4 (00:00) 11.8 5.83 (10:50) 2.5 (12:10) 0 0 0 0 0
28-12-2019 19 (16:50) 7 (00:00) 13 5 (10:40) 2.22 (12:10) 0 0 0 0 0
27-12-2019 19.3 (16:20) 8.1 (00:00) 13.7 5.56 (14:50) 2.78 (10:20) 0 0 0 0 0
26-12-2019 16.5 (16:40) 7.1 (00:00) 11.8 3.33 (03:10) 2.5 (03:10) 0 0 0 0 0
25-12-2019 19.3 (15:40) 9.2 (00:00) 14.2 6.11 (11:30) 3.06 (07:00) 0 0 0 0 0
24-12-2019 19.8 (17:00) 6.7 (00:00) 13.2 5.28 (13:10) 2.78 (12:30) 0 0 0 0 0
23-12-2019 13.4 (16:50) 9.1 (00:00) 11.3 6.11 (02:20) 3.06 (02:10) 0.2 0 0.2 0 0
22-12-2019 17.1 (15:10) 11.9 (00:00) 14.5 12.78 (14:10) 6.11 (14:10) 0 0 0 0 0
21-12-2019 19 (14:40) 13.5 (00:00) 16.3 19.17 (11:10) 9.17 (11:20) 9 8.2 0.2 0.6 0
20-12-2019 17.9 (16:30) 14.5 (00:00) 16.2 22.78 (16:30) 11.11 (16:30) 10.6 5.2 0.6 0.8 4
19-12-2019 17.7 (22:00) 12.4 (04:20) 15.1 22.78 (22:00) 12.78 (22:20) 12.4 7.2 0 1.4 3.8

Gráficas

Temp. máximas Temp. mínimas Temp. medias Precipitaciones Rachas de viento máximas Velocidades máximas media en intervalos de 10 minutos

Datos horarios

Fecha y hora oficial Temperatura (ºC) Velocidad del viento (km/h) Dirección del viento Racha (km/h) Dirección de racha Precipitación (mm) Presión (hPa) Tendencia (hPa) Humedad (%)
2020-01-17 23:00:00 10.3 5 Sudeste 10 Sudeste 0 999.3 -0.5 84
2020-01-17 22:00:00 10.3 4 Sudeste 10 Sur 0 999.7 0.5 83
2020-01-17 21:00:00 10.1 4 Sur 8 Sur 0 999.8 0.8 83
2020-01-17 20:00:00 10.6 2 Sur 6 Oeste 0 999.8 0.8 80
2020-01-17 19:00:00 11.6 4 Sudoeste 8 Oeste 0 999.2 0.3 77
2020-01-17 18:00:00 13.6 3 Sudoeste 12 Noroeste 0 999 0.1 69
2020-01-17 17:00:00 14.4 6 Oeste 18 Noroeste 0 999 -0.7 68
2020-01-17 16:00:00 14.8 5 Oeste 20 Noroeste 0 998.9 -1.3 66
2020-01-17 15:00:00 14.9 9 Oeste 24 Sudoeste 0 998.9 -1.8 66
2020-01-17 14:00:00 15 8 Oeste 20 Oeste 0 999.7 -0.5 67
2020-01-17 13:00:00 14 10 Sudoeste 20 Oeste 0 1000.2 0.5 71
2020-01-17 12:00:00 13.2 9 Sudoeste 18 Sudoeste 0 1000.7 1.5 77
2020-01-17 11:00:00 11.6 6 Sudoeste 17 Sudoeste 0 1000.2 2.2 89
2020-01-17 10:00:00 10.4 6 Oeste 17 Sudoeste 0 999.7 2.3 94
2020-01-17 09:00:00 10.4 9 Oeste 18 Sudoeste 0 999.2 2.6 93
2020-01-17 08:00:00 10.7 6 Sudoeste 12 Sudoeste 0 998 1.4 93
2020-01-17 07:00:00 10.5 4 Noroeste 8 Noroeste 0 997.4 1.2 92
2020-01-17 06:00:00 10.3 4 Sudoeste 9 Sudoeste 0 996.6 0.5 89
2020-01-17 05:00:00 11 4 Oeste 12 Sudoeste 0 996.6 0.9 87
2020-01-17 04:00:00 11.2 5 Sudoeste 16 Sudoeste 0 996.2 0.3 86
2020-01-17 03:00:00 11.2 10 Sur 22 Sudoeste 0 996.1 0.3 87
2020-01-17 02:00:00 11 14 Sudoeste 34 Sudoeste 0 995.7 0.1 87
2020-01-17 01:00:00 12 6 Sur 12 Sur 0 995.9 1.3 65
2020-01-17 00:00:00 12.1 8 Sudoeste 33 Sudoeste 0 995.8 1.5 63
2020-01-16 23:00:00 12.3 4 Sudoeste 15 Sur 0 995.6 1.6 51
2020-01-16 22:00:00 12.4 8 Sur 17 Sur 0 994.6 1.2 50
2020-01-16 21:00:00 12.4 6 Sur 18 Sur 0 994.3 1.4 46
2020-01-16 20:00:00 12.2 10 Sur 20 Sudoeste 0 994 1.1 48
2020-01-16 19:00:00 13.5 8 Sur 16 Sur 0 993.4 0.6 47
2020-01-16 18:00:00 15.6 11 Sur 25 Sudoeste 0 992.9 -0.3 41
2020-01-16 17:00:00 17.8 13 Sudoeste 32 Sudoeste 0 992.9 -1.1 34
2020-01-16 16:00:00 18.4 15 Sudoeste 32 Sudoeste 0 992.8 -2.2 33
2020-01-16 15:00:00 18.5 18 Sudoeste 32 Sudoeste 0 993.2 -2.6 32
2020-01-16 14:00:00 17.7 9 Sudoeste 21 Sur 0 994 -1.8 39
2020-01-16 13:00:00 16 6 Sur 22 Sudeste 0 995 -0.4 49
2020-01-16 12:00:00 14.2 5 Sudeste 14 Sudeste 0 995.8 1 61
2020-01-16 11:00:00 12.3 8 Sudeste 20 Este 0 995.8 1.4 73
2020-01-16 10:00:00 11.2 6 Sudeste 14 Este 0 995.4 1.2 78
2020-01-16 09:00:00 9.4 4 Este 11 Sudeste 0 994.8 0.6 86
2020-01-16 08:00:00 10.6 5 Sur 13 Sudeste 0 994.4 0.3 80
2020-01-16 07:00:00 11 2 Este 8 Sudeste 0 994.2 0.1 81
2020-01-16 06:00:00 12 0 Calma 12 Sur 0 994.2 -0.2 78
2020-01-16 05:00:00 12.6 7 Sur 21 Sudeste 0 994.1 -0.2 75
2020-01-16 04:00:00 12.6 9 Sudeste 17 Sudeste 0 994.1 -0.4 78
2020-01-16 03:00:00 12.5 7 Sur 15 Sur 0 994.4 -0.3 80
2020-01-16 02:00:00 11.9 8 Sudeste 13 Sudeste 0 994.3 -0.1 83
2020-01-16 01:00:00 12.1 2 Este 9 Sudoeste 0 994.5 0.5 82
2020-01-16 00:00:00 12.4 7 Sudeste 12 Sudeste 0 994.7 0.8 80
2020-01-15 23:00:00 12.8 2 Sur 15 Sur 0 994.4 0.7 79
2020-01-15 22:00:00 12.9 9 Sur 19 Sur 0 994 0.7 78
2020-01-15 21:00:00 12.5 13 Sudeste 23 Sur 0 993.9 1.1 80
2020-01-15 20:00:00 13.3 7 Sur 22 Sur 0 993.7 1.4 75
2020-01-15 19:00:00 13.7 11 Sur 22 Sur 0 993.3 1.3 73
2020-01-15 18:00:00 14.8 12 Sur 28 Sur 0 992.8 1 69
2020-01-15 17:00:00 15.8 14 Sur 26 Sudoeste 0 992.3 0 64
2020-01-15 16:00:00 15.3 13 Sur 34 Sudoeste 0 992 -0.7 66
2020-01-15 15:00:00 15.7 15 Sudoeste 32 Sudoeste 0 991.8 -1.3 62
2020-01-15 14:00:00 14.9 12 Sudoeste 24 Sur 0 992.3 -0.3 64
2020-01-15 13:00:00 13.8 5 Sur 26 Sudoeste 0 992.7 1.2 66
2020-01-15 12:00:00 12.7 12 Sur 26 Sudoeste 0 993.1 1.9 67
2020-01-15 11:00:00 11.9 14 Sudoeste 28 Sudoeste 0 992.6 1.7 69
2020-01-15 10:00:00 10.5 12 Sudoeste 27 Sudoeste 0 991.5 1.2 70
2020-01-15 09:00:00 10 11 Sur 24 Sudoeste 0 991.2 1.3 70
2020-01-15 08:00:00 9.1 8 Sur 20 Sur 0 990.9 0.8 73
2020-01-15 07:00:00 6 3 Nordeste 8 Nordeste 0 990.3 0.3 85
2020-01-15 06:00:00 5.9 2 Norte 8 Norte 0 989.9 -0.5 84
2020-01-15 05:00:00 7.8 3 Norte 22 Sudeste 0 990.1 -0.5 77
2020-01-15 04:00:00 6.8 0 Calma 16 Sudeste 0 990 -0.6 80
2020-01-15 03:00:00 8 3 Norte 15 Este 0 990.4 -0.4 76
2020-01-15 02:00:00 9.2 4 Sudoeste 23 Sudoeste 0 990.6 -0.2 72
2020-01-15 01:00:00 8.7 9 Sudoeste 22 Sur 0 990.6 -0.1 75
2020-01-15 00:00:00 8.7 2 Oeste 22 Sur 0 990.8 0.4 73
2020-01-14 23:00:00 9.8 6 Sur 13 Sur 0 990.8 0.4 69
2020-01-14 22:00:00 9.6 4 Sur 15 Sudoeste 0 990.7 0.5 71
2020-01-14 21:00:00 10.9 8 Sur 14 Sudoeste 0 990.4 0.5 67
2020-01-14 20:00:00 11 5 Sur 14 Sur 0 990.4 0.5 69
2020-01-14 19:00:00 11.1 0 Calma 3 Oeste 0 990.2 0.6 71
2020-01-14 18:00:00 11.7 3 Oeste 9 Oeste 0 989.9 0.1 67
2020-01-14 17:00:00 12.4 5 Oeste 12 Sudoeste 0 989.9 -0.9 62
2020-01-14 16:00:00 13.1 3 Este 12 Sudeste 0 989.6 -2.2 55
2020-01-14 15:00:00 12.8 4 Nordeste 10 Nordeste 0 989.8 -2.7 57
2020-01-14 14:00:00 12.3 4 Este 12 Norte 0 990.8 -1.4 58
2020-01-14 13:00:00 9.6 4 Nordeste 9 Norte 0 991.8 -0.2 69
2020-01-14 12:00:00 7 5 Norte 10 Nordeste 0 992.5 0.9 74
2020-01-14 11:00:00 5.4 3 Este 12 Este 0 992.2 1 77
2020-01-14 10:00:00 2.3 4 Nordeste 9 Nordeste 0 992 0.7 91
2020-01-14 09:00:00 0.4 3 Norte 10 Sudeste 0 991.6 0.5 93
2020-01-14 08:00:00 1.3 9 Sudeste 13 Sudeste 0 991.2 0 92
2020-01-14 07:00:00 -0.1 7 Sudeste 10 Sudeste 0 991.3 -0.1 92
2020-01-14 06:00:00 0.2 0 Calma 5 Norte 0 991.1 -0.4 92
2020-01-14 05:00:00 0.8 0 Calma 9 Sudeste 0 991.2 -0.7 90
2020-01-14 04:00:00 1.5 3 Sur 18 Noroeste 0 991.4 -1.2 90
2020-01-14 03:00:00 1.5 5 Sudeste 17 Sur 0 991.5 -1.2 89
2020-01-14 02:00:00 2.5 0 Calma 7 Norte 0 991.9 -0.8 89
2020-01-14 01:00:00 3.3 2 Norte 8 Sudeste 0 992.6 -0.1 86
2020-01-14 00:00:00 4.2 5 Sur 10 Sudeste 0 992.7 0.4 86
2020-01-13 23:00:00 4.5 2 Norte 7 Noroeste 0 992.7 0.3 84
2020-01-13 22:00:00 5.4 0 Calma 10 Sudeste 0 992.7 0.4 78
2020-01-13 21:00:00 6.5 8 Sudeste 11 Sudeste 0 992.3 0 73
2020-01-13 20:00:00 7.7 4 Sudeste 8 Sudeste 0 992.4 -0.1 69
2020-01-13 19:00:00 9.3 3 Sudoeste 6 Sudoeste 0 992.3 -0.3 65
2020-01-13 18:00:00 11.3 2 Oeste 10 Oeste 0 992.3 -0.8 57
2020-01-13 17:00:00 12.3 3 Oeste 8 Oeste 0 992.5 -1.4 54
2020-01-13 16:00:00 12.3 3 Noroeste 11 Noroeste 0 992.6 -2.4 52
2020-01-13 15:00:00 11.1 4 Norte 10 Norte 0 993.1 -2.4 61
2020-01-13 14:00:00 9.6 5 Norte 9 Norte 0 993.9 -1.8 67
2020-01-13 13:00:00 8.5 3 Este 9 Nordeste 0 995 -0.2 68
2020-01-13 12:00:00 5.3 4 Nordeste 10 Norte 0 995.5 0.7 81
2020-01-13 11:00:00 3.8 3 Norte 7 Norte 0 995.7 0.8 81
2020-01-13 10:00:00 1.3 2 Nordeste 6 Este 0 995.2 0.4 91
2020-01-13 09:00:00 -0.4 0 Calma 6 Este 0 994.8 0 92
2020-01-13 08:00:00 -0.4 0 Calma 5 Noroeste 0 994.9 -0.4 91
2020-01-13 07:00:00 0.2 2 Noroeste 9 Sudeste 0 994.8 -0.7 89
2020-01-13 06:00:00 0.4 4 Sudeste 6 Sudeste 0 994.8 -1.1 90
2020-01-13 05:00:00 0.4 0 Calma 4 Sur 0 995.3 -0.9 89
2020-01-13 04:00:00 1 2 Sur 6 Sur 0 995.5 -1.2 88
2020-01-13 03:00:00 1.6 0 Calma 4 Norte 0 995.9 -1.1 88
2020-01-13 02:00:00 2.2 2 Norte 6 Norte 0 996.2 -1 85
2020-01-13 01:00:00 3.5 0 Calma 10 Sudeste 0 996.7 -0.4 77
2020-01-13 00:00:00 4.5 6 Sudeste 10 Sudeste 0 997 -0.2 74
2020-01-12 23:00:00 4.7 3 Sudeste 8 Sudeste 0 997.2 0 74
2020-01-12 22:00:00 5.2 3 Sudeste 8 Sudeste 0 997.1 0.1 72
2020-01-12 21:00:00 6.7 8 Sudeste 10 Sudeste 0 997.2 0.7 67
2020-01-12 20:00:00 7.8 3 Sur 5 Sudoeste 0 997.2 0.6 63
2020-01-12 19:00:00 10 2 Sudoeste 5 Sudoeste 0 997 0.1 56
2020-01-12 18:00:00 12.6 2 Sudoeste 5 Sur 0 996.5 -0.8 48
2020-01-12 17:00:00 14.1 0 Calma 6 Norte 0 996.6 -1.6 40
2020-01-12 16:00:00 13.7 3 Noroeste 8 Noroeste 0 996.9 -2.3 45
2020-01-12 15:00:00 12.3 3 Norte 9 Norte 0 997.3 -2.6 54
2020-01-12 14:00:00 10.6 4 Norte 8 Norte 0 998.2 -1.9 56
2020-01-12 13:00:00 8.5 3 Nordeste 8 Norte 0 999.2 -0.3 66
2020-01-12 12:00:00 7.3 0 Calma 9 Nordeste 0 999.9 0.7 68
2020-01-12 11:00:00 4.2 3 Norte 7 Norte 0 1000.1 1.2 82
2020-01-12 10:00:00 2.6 2 Sudeste 3 Sudeste 0 999.5 0.9 88
2020-01-12 09:00:00 -0.2 0 Calma 12 Este 0 999.2 0.6 92
2020-01-12 08:00:00 0.5 0 Calma 8 Sudeste 0 998.9 0.1 89
2020-01-12 07:00:00 0.3 0 Calma 4 Sudeste 0 998.6 -0.4 90
2020-01-12 06:00:00 0.6 0 Calma 4 Sudeste 0 998.6 -0.1 89
2020-01-12 05:00:00 1 0 Calma 3 Sudeste 0 998.8 0.2 88
2020-01-12 04:00:00 1.6 2 Oeste 8 Sudoeste 0 999 0.2 86
2020-01-12 03:00:00 2.5 0 Calma 4 Norte 0 998.7 -0.1 84
2020-01-12 02:00:00 3.2 3 Noroeste 7 Sudeste 0 998.6 -0.1 81
2020-01-12 01:00:00 3.7 3 Sudeste 5 Sudeste 0 998.8 0.2 80
2020-01-12 00:00:00 4.4 3 Sur 12 Sudeste 0 998.8 0.3 78
2020-01-11 23:00:00 4.7 6 Sudeste 10 Sudeste 0 998.7 0.5 75
2020-01-11 22:00:00 5.8 2 Sudeste 6 Sudeste 0 998.6 0.8 71
2020-01-11 21:00:00 6.7 3 Sur 7 Sudoeste 0 998.5 1.3 70
2020-01-11 20:00:00 8 4 Sur 8 Sur 0 998.2 1.1 64
2020-01-11 19:00:00 9.7 3 Oeste 6 Oeste 0 997.8 0.7 58
2020-01-11 18:00:00 12.2 2 Norte 10 Nordeste 0 997.2 -0.4 46
2020-01-11 17:00:00 13.6 4 Nordeste 14 Nordeste 0 997.1 -1.3 41
2020-01-11 16:00:00 13.6 6 Nordeste 15 Nordeste 0 997.1 -2.3 44
2020-01-11 15:00:00 12.5 5 Norte 13 Norte 0 997.6 -2.3 47
2020-01-11 14:00:00 12.2 4 Nordeste 12 Norte 0 998.4 -1.2 51
2020-01-11 13:00:00 11.2 3 Nordeste 12 Nordeste 0 999.4 0.3 53
2020-01-11 12:00:00 9 2 Norte 7 Norte 0 999.9 1.1 61
2020-01-11 11:00:00 6.1 4 Norte 10 Sudeste 0 999.6 1.1 73
2020-01-11 10:00:00 4.5 0 Calma 6 Nordeste 0 999.1 0.9 78
2020-01-11 09:00:00 0.7 2 Sudeste 15 Sudeste 0 998.8 0.9 90
2020-01-11 08:00:00 0.9 0 Calma 5 Norte 0 998.5 0.4 89
2020-01-11 07:00:00 1.3 3 Norte 6 Norte 0 998.2 0.1 87
2020-01-11 06:00:00 1.7 2 Este 10 Sudeste 0 997.9 -0.3 84
2020-01-11 05:00:00 1.7 2 Nordeste 5 Sudeste 0 998.1 0.2 86
2020-01-11 04:00:00 2.3 0 Calma 7 Sudeste 0 998.1 0.2 85
2020-01-11 03:00:00 2.6 0 Calma 4 Sudeste 0 998.2 0.4 83
2020-01-11 02:00:00 3.2 2 Sur 8 Sudeste 0 997.9 0.4 81
2020-01-11 01:00:00 3.5 3 Sur 11 Sur 0 997.9 0.8 80
2020-01-11 00:00:00 4.4 0 Calma 5 Sur 0 997.8 1 78
2020-01-10 23:00:00 5.5 3 Sudoeste 9 Nordeste 0 997.5 1.3 73
2020-01-10 22:00:00 6.5 3 Este 6 Este 0 997.1 1.6 71
2020-01-10 21:00:00 8 2 Norte 8 Nordeste 0 996.8 1.7 67
2020-01-10 20:00:00 8.9 3 Norte 7 Norte 0 996.2 1.3 67
2020-01-10 19:00:00 10.3 2 Nordeste 9 Norte 0 995.5 0.7 63
2020-01-10 18:00:00 12.2 4 Norte 17 Norte 0 995.1 0.7 55
2020-01-10 17:00:00 13.6 6 Norte 17 Norte 0 994.9 -0.6 50
2020-01-10 16:00:00 13.1 5 Norte 14 Norte 0 994.8 -1.5 58
2020-01-10 15:00:00 12.4 5 Nordeste 17 Norte 0 994.4 -1.9 60
2020-01-10 14:00:00 11.3 4 Nordeste 9 Nordeste 0 995.5 -0.6 63
2020-01-10 13:00:00 10.1 3 Noroeste 8 Nordeste 0 996.3 0.6 62
2020-01-10 12:00:00 8.4 3 Sudeste 10 Sudeste 0 996.3 1.4 69
2020-01-10 11:00:00 7 4 Sudeste 13 Nordeste 0 996.1 1.8 77
2020-01-10 10:00:00 4.4 3 Nordeste 10 Sudoeste 0 995.7 1.9 89
2020-01-10 09:00:00 2.9 6 Sudoeste 14 Oeste 0 994.9 1.3 92
2020-01-10 08:00:00 3.7 7 Sudoeste 17 Oeste 0 994.3 0.4 92
2020-01-10 07:00:00 4.4 7 Sudoeste 15 Sudoeste 0 993.8 -0.3 92
2020-01-10 06:00:00 5.2 9 Sudoeste 19 Oeste 0 993.6 -0.3 93
2020-01-10 05:00:00 5.3 7 Sudoeste 18 Sudoeste 0 993.9 -0.2 94
2020-01-10 04:00:00 6.7 9 Sudoeste 18 Sudoeste 0 994.1 0 94
2020-01-10 03:00:00 7.4 8 Sudoeste 15 Sudoeste 0 993.9 -0.8 94
2020-01-10 02:00:00 8.2 5 Sudoeste 16 Sudoeste 0 994.1 -0.5 93
2020-01-10 01:00:00 8.4 6 Sudoeste 13 Sudoeste 0 994.1 -0.7 89
2020-01-10 00:00:00 9.1 6 Sudoeste 11 Oeste 0 994.7 -0.1 83
2020-01-09 23:00:00 9.1 5 Sudoeste 9 Sudoeste 0 994.6 -0.1 82
2020-01-09 22:00:00 8.3 2 Sudeste 10 Sudoeste 0 994.8 0.4 85
2020-01-09 21:00:00 8.9 5 Sudoeste 14 Oeste 0 994.8 0.8 82
2020-01-09 20:00:00 9.9 7 Sudoeste 14 Oeste 0 994.7 0.6 79
2020-01-09 19:00:00 10 6 Oeste 13 Sudoeste 0 994.4 0.4 77
2020-01-09 18:00:00 11.9 8 Oeste 15 Oeste 0 994 -0.1 70
2020-01-09 17:00:00 13 6 Oeste 17 Oeste 0 994.1 -1.2 66
2020-01-09 16:00:00 12.2 5 Oeste 13 Oeste 0 994 -2.2 69
2020-01-09 15:00:00 10.8 5 Sudoeste 13 Sudoeste 0 994.1 -2.3 80
2020-01-09 14:00:00 6.5 4 Sudoeste 8 Oeste 0 995.3 -0.9 95
2020-01-09 13:00:00 4.9 2 Oeste 8 Noroeste 0 996.2 0 95
2020-01-09 12:00:00 4.1 0 Calma 10 Noroeste 0 996.4 1.4 95
2020-01-09 11:00:00 3 5 Sudeste 9 Sudeste 0 996.2 1.3 95
2020-01-09 10:00:00 1.7 0 Calma 9 Norte 0 996.2 1.2 95
2020-01-09 09:00:00 0.5 3 Nordeste 5 Norte 0 995 0 95
2020-01-09 08:00:00 0.7 0 Calma 4 Nordeste 0 994.9 0.1 94
2020-01-09 07:00:00 0.9 0 Calma 4 Nordeste 0 995 -0.1 94
2020-01-09 06:00:00 1.7 0 Calma 7 Sudeste 0 995 -0.4 93
2020-01-09 05:00:00 2.2 3 Sudeste 5 Sudeste 0 994.8 -0.3 92
2020-01-09 04:00:00 2.8 3 Sur 5 Nordeste 0 995.1 -0.5 92
2020-01-09 03:00:00 3.3 4 Nordeste 7 Norte 0 995.4 -0.5 92
2020-01-09 02:00:00 4.2 2 Este 9 Sudeste 0 995.1 -0.8 90
2020-01-09 01:00:00 5 7 Sudeste 12 Sudeste 0 995.6 -0.1 91
2020-01-09 00:00:00 5.1 4 Sudeste 8 Sur 0 995.9 0.4 89
2020-01-08 23:00:00 5.3 2 Sudeste 8 Sudeste 0 995.9 0.5 87
2020-01-08 22:00:00 6.6 8 Sudeste 10 Sudeste 0 995.7 0.4 85
2020-01-08 21:00:00 7.1 4 Sur 7 Sur 0 995.5 0.2 82
2020-01-08 20:00:00 8.3 5 Sur 8 Sudoeste 0 995.4 0.3 78
2020-01-08 19:00:00 10.4 4 Sudoeste 5 Sudoeste 0 995.3 0.3 72
2020-01-08 18:00:00 12.5 3 Oeste 5 Sudoeste 0 995.3 0 66
2020-01-08 17:00:00 13.9 2 Norte 9 Noroeste 0 995.1 -1 58
2020-01-08 16:00:00 13 3 Nordeste 8 Nordeste 0 995 -2.1 64
2020-01-08 15:00:00 11.7 4 Nordeste 10 Norte 0 995.3 -2.8 70
2020-01-08 14:00:00 10.1 3 Norte 6 Este 0 996.1 -2.2 73
2020-01-08 13:00:00 7.8 2 Norte 7 Noroeste 0 997.1 -0.6 79
2020-01-08 12:00:00 5 0 Calma 6 Noroeste 0 998.1 1.2 88
2020-01-08 11:00:00 2.9 0 Calma 5 Norte 0 998.3 1.4 92
2020-01-08 10:00:00 1.9 0 Calma 6 Noroeste 0 997.7 0.9 94
2020-01-08 09:00:00 0.4 3 Noroeste 6 Este 0 996.9 0.1 94
2020-01-08 08:00:00 1.1 2 Este 6 Nordeste 0 996.9 -0.1 95
2020-01-08 07:00:00 1 3 Nordeste 6 Nordeste 0 996.8 -0.6 94
2020-01-08 06:00:00 1.7 2 Nordeste 4 Nordeste 0 996.8 -0.6 94
2020-01-08 05:00:00 2.1 0 Calma 4 Noroeste 0 997 -0.4 93
2020-01-08 04:00:00 2.9 0 Calma 5 Sudeste 0 997.4 -0.3 92
2020-01-08 03:00:00 3.4 0 Calma 5 Sudeste 0 997.4 -0.6 91
2020-01-08 02:00:00 4 3 Sudeste 6 Sudeste 0 997.4 -0.7 90
2020-01-08 01:00:00 4.7 2 Nordeste 5 Nordeste 0 997.7 -0.5 91
2020-01-08 00:00:00 5.2 2 Nordeste 7 Sudeste 0 998 -0.1 88
2020-01-07 23:00:00 6.8 5 Sur 11 Sudeste 0 998.1 0.1 84
2020-01-07 22:00:00 6.9 9 Sudeste 12 Sur 0 998.2 0.5 84
2020-01-07 21:00:00 8 9 Sur 11 Sudeste 0 998.1 0.6 80
2020-01-07 20:00:00 9 0 Calma 5 Sudoeste 0 998 0.6 77
2020-01-07 19:00:00 10.9 0 Calma 4 Noroeste 0 997.7 0.3 71
2020-01-07 18:00:00 13.2 0 Calma 6 Norte 0 997.5 -0.6 61
2020-01-07 17:00:00 14.3 3 Norte 6 Noroeste 0 997.4 -1.1 55
2020-01-07 16:00:00 15.1 3 Sudeste 8 Sudeste 0 997.4 -2.1 52
2020-01-07 15:00:00 13 2 Nordeste 10 Noroeste 0 998.1 -2.1 63
2020-01-07 14:00:00 11.4 3 Norte 9 Norte 0 998.5 -1.6 69
2020-01-07 13:00:00 9.7 3 Norte 8 Noroeste 0 999.5 -0.1 73
2020-01-07 12:00:00 6.4 3 Norte 7 Nordeste 0 1000.2 1 82
2020-01-07 11:00:00 5 0 Calma 8 Norte 0 1000.1 1.2 90
2020-01-07 10:00:00 1.5 3 Norte 6 Norte 0 999.6 0.8 94
2020-01-07 09:00:00 0.9 2 Sur 7 Sur 0 999.2 0.7 94
2020-01-07 08:00:00 1 0 Calma 4 Nordeste 0 998.9 0.1 94
2020-01-07 07:00:00 1.3 0 Calma 4 Nordeste 0 998.8 0.3 93
2020-01-07 06:00:00 1.7 0 Calma 6 Sur 0 998.5 0.4 93
2020-01-07 05:00:00 1.8 3 Sudeste 8 Sur 0 998.8 0.8 92
2020-01-07 04:00:00 2.4 0 Calma 6 Norte 0 998.5 0.1 92
2020-01-07 03:00:00 3.3 0 Calma 6 Sudeste 0 998.1 -0.1 91
2020-01-07 02:00:00 3.8 0 Calma 3 Sudeste 0 998 0 90
2020-01-07 01:00:00 4.3 0 Calma 8 Sudeste 0 998.4 0.4 88
2020-01-07 00:00:00 5.5 6 Sudeste 13 Sudeste 0 998.2 0.6 85
2020-01-06 23:00:00 6 8 Sudeste 11 Sudeste 0 998 0.9 84
2020-01-06 22:00:00 6.4 3 Sur 12 Sudeste 0 998 1.6 83
2020-01-06 21:00:00 7 2 Sur 8 Noroeste 0 997.6 1.5 82
2020-01-06 20:00:00 8.4 2 Noroeste 8 Noroeste 0 997.1 1.3 76
2020-01-06 19:00:00 10.1 0 Calma 6 Noroeste 0 996.4 1 70
2020-01-06 18:00:00 12.2 0 Calma 8 Noroeste 0 996.1 0.5 59
2020-01-06 17:00:00 13.8 4 Noroeste 8 Norte 0 995.8 -0.5 54
2020-01-06 16:00:00 14.7 4 Sudeste 9 Este 0 995.4 -2 49
2020-01-06 15:00:00 13.1 3 Norte 9 Nordeste 0 995.6 -2.6 60
2020-01-06 14:00:00 11.3 4 Norte 8 Norte 0 996.3 -1.9 66
2020-01-06 13:00:00 10 3 Nordeste 9 Nordeste 0 997.4 -0.3 68
2020-01-06 12:00:00 7 2 Nordeste 6 Noroeste 0 998.2 1.2 80
2020-01-06 11:00:00 4.7 3 Sur 8 Sudeste 0 998.2 2.1 89
2020-01-06 10:00:00 1.7 3 Sudeste 5 Sudeste 0 997.7 2 94